LZB449 LBSF-LIRF
Flight info
| Callsign | LZB449 |
|---|---|
| Flight time | 1h 44m |
| Altitude | 37000 |
| Route | OGOTA L615 OBLAK DCT KATTI DCT RIVAM DCT ERPOG DCT ESODU DCT ASPIR Z924 MOPUV |
| Aircraft | A320/M-SDE3FGHIRWY/LB1 |
Departure
| Time | 2026-05-05 10:39 |
|---|---|
| Airport | Sofia Airport (LBSF) |
Arrival
| Time | 2026-05-05 12:24 |
|---|---|
| Airport | Rome–Fiumicino Leonardo da Vinci International Airport (LIRF) |
| Time | Latitude | Longitude | Altitude | Speed | Heading |
|---|---|---|---|---|---|
| 2026-05-05 10:19 | 42.69018 | 23.40570 | 1749 ft | 0 kts | 196° |
| 2026-05-05 10:34 | 42.69013 | 23.40568 | 1749 ft | 2 kts | 196° |
| 2026-05-05 10:34 | 42.68989 | 23.40546 | 1746 ft | 6 kts | 234° |
| 2026-05-05 10:34 | 42.68992 | 23.40477 | 1744 ft | 9 kts | 286° |
| 2026-05-05 10:35 | 42.69013 | 23.40380 | 1747 ft | 11 kts | 286° |
| 2026-05-05 10:35 | 42.69032 | 23.40290 | 1749 ft | 9 kts | 286° |
| 2026-05-05 10:35 | 42.69048 | 23.40217 | 1740 ft | 7 kts | 286° |
| 2026-05-05 10:35 | 42.69061 | 23.40158 | 1749 ft | 6 kts | 287° |
| 2026-05-05 10:36 | 42.69071 | 23.40114 | 1749 ft | 4 kts | 286° |
| 2026-05-05 10:36 | 42.69078 | 23.40080 | 1742 ft | 5 kts | 286° |
| 2026-05-05 10:36 | 42.69092 | 23.39991 | 1746 ft | 13 kts | 265° |
| 2026-05-05 10:36 | 42.69118 | 23.39838 | 1746 ft | 20 kts | 287° |
| 2026-05-05 10:37 | 42.69160 | 23.39637 | 1748 ft | 19 kts | 285° |
| 2026-05-05 10:37 | 42.69266 | 23.39546 | 1744 ft | 22 kts | 7° |
| 2026-05-05 10:37 | 42.69441 | 23.39569 | 1742 ft | 29 kts | 5° |
| 2026-05-05 10:37 | 42.69606 | 23.39586 | 1748 ft | 20 kts | 6° |
| 2026-05-05 10:38 | 42.69728 | 23.39605 | 1749 ft | 14 kts | 15° |
| 2026-05-05 10:38 | 42.69769 | 23.39736 | 1743 ft | 20 kts | 96° |
| 2026-05-05 10:38 | 42.69756 | 23.39951 | 1751 ft | 27 kts | 94° |
| 2026-05-05 10:38 | 42.69722 | 23.40494 | 1745 ft | 98 kts | 96° |
| 2026-05-05 10:39 | 42.69636 | 23.41742 | 1745 ft | 164 kts | 95° |
| 2026-05-05 10:39 | 42.69493 | 23.43439 | 2117 ft | 191 kts | 97° |
| 2026-05-05 10:39 | 42.69364 | 23.45323 | 2753 ft | 210 kts | 93° |
| 2026-05-05 10:39 | 42.69246 | 23.47417 | 3334 ft | 232 kts | 92° |
| 2026-05-05 10:40 | 42.69146 | 23.49700 | 3915 ft | 251 kts | 91° |
| 2026-05-05 10:40 | 42.69018 | 23.52139 | 4679 ft | 264 kts | 91° |
| 2026-05-05 10:40 | 42.69200 | 23.54628 | 5561 ft | 268 kts | 70° |
| 2026-05-05 10:40 | 42.70165 | 23.56769 | 6367 ft | 271 kts | 43° |
| 2026-05-05 10:41 | 42.71779 | 23.58131 | 7025 ft | 280 kts | 17° |
| 2026-05-05 10:41 | 42.73735 | 23.58387 | 7733 ft | 290 kts | 353° |
| 2026-05-05 10:41 | 42.75646 | 23.57465 | 8500 ft | 297 kts | 333° |
| 2026-05-05 10:41 | 42.77491 | 23.56106 | 9184 ft | 309 kts | 333° |
| 2026-05-05 10:42 | 42.81363 | 23.53327 | 10860 ft | 311 kts | 339° |
| 2026-05-05 10:42 | 42.83483 | 23.52488 | 11299 ft | 325 kts | 349° |
| 2026-05-05 10:42 | 42.85761 | 23.51891 | 11660 ft | 342 kts | 347° |
| 2026-05-05 10:43 | 42.88076 | 23.50942 | 12215 ft | 351 kts | 342° |
| 2026-05-05 10:43 | 42.90358 | 23.49843 | 12942 ft | 354 kts | 341° |
| 2026-05-05 10:43 | 42.92704 | 23.48624 | 13683 ft | 357 kts | 340° |
| 2026-05-05 10:43 | 42.95023 | 23.47358 | 14319 ft | 361 kts | 339° |
| 2026-05-05 10:44 | 42.97360 | 23.46049 | 14924 ft | 364 kts | 339° |
| 2026-05-05 10:44 | 42.99675 | 23.44743 | 15479 ft | 367 kts | 339° |
| 2026-05-05 10:44 | 43.02046 | 23.43412 | 16109 ft | 370 kts | 339° |
| 2026-05-05 10:44 | 43.04440 | 23.42073 | 16754 ft | 372 kts | 339° |
| 2026-05-05 10:45 | 43.06846 | 23.40734 | 17358 ft | 375 kts | 339° |
| 2026-05-05 10:45 | 43.09269 | 23.39393 | 17958 ft | 377 kts | 339° |
| 2026-05-05 10:45 | 43.11715 | 23.38042 | 18539 ft | 380 kts | 339° |
| 2026-05-05 10:45 | 43.13377 | 23.37125 | 18915 ft | 382 kts | 339° |
| 2026-05-05 10:46 | 43.15845 | 23.35763 | 19436 ft | 384 kts | 339° |
| 2026-05-05 10:46 | 43.18239 | 23.34104 | 19990 ft | 388 kts | 328° |
| 2026-05-05 10:46 | 43.20365 | 23.31805 | 20529 ft | 392 kts | 317° |
| 2026-05-05 10:46 | 43.22132 | 23.28941 | 21055 ft | 397 kts | 306° |
| 2026-05-05 10:47 | 43.23466 | 23.25601 | 21565 ft | 403 kts | 295° |
| 2026-05-05 10:47 | 43.24504 | 23.22009 | 22048 ft | 406 kts | 294° |
| 2026-05-05 10:47 | 43.25542 | 23.18400 | 22518 ft | 408 kts | 294° |
| 2026-05-05 10:47 | 43.26589 | 23.14770 | 22979 ft | 410 kts | 294° |
| 2026-05-05 10:48 | 43.27641 | 23.11124 | 23438 ft | 412 kts | 295° |
| 2026-05-05 10:48 | 43.28698 | 23.07454 | 23839 ft | 414 kts | 295° |
| 2026-05-05 10:48 | 43.29754 | 23.03769 | 24204 ft | 416 kts | 294° |
| 2026-05-05 10:48 | 43.30810 | 23.00069 | 24573 ft | 417 kts | 294° |
| 2026-05-05 10:49 | 43.31870 | 22.96356 | 24931 ft | 419 kts | 294° |
| 2026-05-05 10:49 | 43.32936 | 22.92625 | 25277 ft | 420 kts | 294° |
| 2026-05-05 10:49 | 43.34004 | 22.88879 | 25627 ft | 422 kts | 294° |
| 2026-05-05 10:49 | 43.35058 | 22.85177 | 25946 ft | 423 kts | 294° |
| 2026-05-05 10:50 | 43.36128 | 22.81404 | 26270 ft | 425 kts | 294° |
| 2026-05-05 10:50 | 43.37203 | 22.77615 | 26593 ft | 427 kts | 294° |
| 2026-05-05 10:50 | 43.38278 | 22.73811 | 26913 ft | 428 kts | 294° |
| 2026-05-05 10:50 | 43.39352 | 22.69990 | 27175 ft | 429 kts | 294° |
| 2026-05-05 10:51 | 43.40427 | 22.66147 | 27463 ft | 431 kts | 294° |
| 2026-05-05 10:51 | 43.41498 | 22.62297 | 27756 ft | 433 kts | 294° |
| 2026-05-05 10:51 | 43.42576 | 22.58420 | 27989 ft | 434 kts | 294° |
| 2026-05-05 10:51 | 43.43659 | 22.54529 | 28227 ft | 436 kts | 294° |
| 2026-05-05 10:52 | 43.44759 | 22.50571 | 28467 ft | 438 kts | 294° |
| 2026-05-05 10:52 | 43.45832 | 22.46705 | 28703 ft | 439 kts | 294° |
| 2026-05-05 10:52 | 43.46933 | 22.42721 | 28923 ft | 441 kts | 292° |
| 2026-05-05 10:52 | 43.47767 | 22.38636 | 29149 ft | 446 kts | 283° |
| 2026-05-05 10:53 | 43.48088 | 22.34376 | 29432 ft | 450 kts | 274° |
| 2026-05-05 10:53 | 43.47878 | 22.30071 | 29766 ft | 453 kts | 264° |
| 2026-05-05 10:53 | 43.47330 | 22.25795 | 30076 ft | 453 kts | 263° |
| 2026-05-05 10:53 | 43.46787 | 22.21529 | 30349 ft | 452 kts | 264° |
| 2026-05-05 10:54 | 43.46254 | 22.17266 | 30620 ft | 452 kts | 264° |
| 2026-05-05 10:54 | 43.45725 | 22.13009 | 30878 ft | 451 kts | 264° |
| 2026-05-05 10:54 | 43.45194 | 22.08768 | 31169 ft | 449 kts | 264° |
| 2026-05-05 10:54 | 43.44656 | 22.04536 | 31452 ft | 448 kts | 263° |
| 2026-05-05 10:55 | 43.44112 | 22.00323 | 31711 ft | 447 kts | 263° |
| 2026-05-05 10:55 | 43.43567 | 21.96116 | 31989 ft | 446 kts | 263° |
| 2026-05-05 10:55 | 43.43022 | 21.91920 | 32266 ft | 445 kts | 263° |
| 2026-05-05 10:55 | 43.42478 | 21.87746 | 32549 ft | 444 kts | 263° |
| 2026-05-05 10:56 | 43.41932 | 21.83568 | 32833 ft | 442 kts | 263° |
| 2026-05-05 10:56 | 43.41390 | 21.79415 | 33107 ft | 441 kts | 263° |
| 2026-05-05 10:56 | 43.40849 | 21.75267 | 33379 ft | 440 kts | 263° |
| 2026-05-05 10:56 | 43.40307 | 21.71129 | 33655 ft | 439 kts | 263° |
| 2026-05-05 10:57 | 43.39765 | 21.67007 | 33929 ft | 438 kts | 263° |
| 2026-05-05 10:57 | 43.39229 | 21.62953 | 34170 ft | 437 kts | 263° |
| 2026-05-05 10:57 | 43.38685 | 21.58844 | 34403 ft | 436 kts | 263° |
| 2026-05-05 10:57 | 43.38142 | 21.54755 | 34640 ft | 434 kts | 263° |
| 2026-05-05 10:58 | 43.37600 | 21.50679 | 34872 ft | 433 kts | 263° |
| 2026-05-05 10:58 | 43.37059 | 21.46618 | 35085 ft | 432 kts | 263° |
| 2026-05-05 10:58 | 43.36517 | 21.42564 | 35265 ft | 431 kts | 263° |
| 2026-05-05 10:58 | 43.35968 | 21.38468 | 35443 ft | 430 kts | 263° |
| 2026-05-05 10:59 | 43.35421 | 21.34423 | 35633 ft | 429 kts | 263° |
| 2026-05-05 10:59 | 43.34875 | 21.30395 | 35827 ft | 428 kts | 263° |
| 2026-05-05 10:59 | 43.34329 | 21.26377 | 36006 ft | 427 kts | 263° |
| 2026-05-05 10:59 | 43.33785 | 21.22366 | 36187 ft | 427 kts | 263° |
| 2026-05-05 11:00 | 43.33242 | 21.18372 | 36373 ft | 426 kts | 263° |
| 2026-05-05 11:00 | 43.32696 | 21.14370 | 36546 ft | 425 kts | 263° |
| 2026-05-05 11:00 | 43.32151 | 21.10385 | 36706 ft | 425 kts | 263° |
| 2026-05-05 11:00 | 43.31604 | 21.06397 | 36872 ft | 424 kts | 263° |
| 2026-05-05 11:01 | 43.31058 | 21.02430 | 37038 ft | 423 kts | 263° |
| 2026-05-05 11:01 | 43.29960 | 20.94460 | 37081 ft | 425 kts | 263° |
| 2026-05-05 11:02 | 43.28855 | 20.86492 | 37079 ft | 425 kts | 263° |
| 2026-05-05 11:02 | 43.27745 | 20.78555 | 37088 ft | 424 kts | 263° |
| 2026-05-05 11:03 | 43.26629 | 20.70610 | 37083 ft | 424 kts | 263° |
| 2026-05-05 11:03 | 43.25512 | 20.62686 | 37079 ft | 423 kts | 262° |
| 2026-05-05 11:04 | 43.24391 | 20.54764 | 37075 ft | 423 kts | 262° |
| 2026-05-05 11:04 | 43.23263 | 20.46855 | 37069 ft | 422 kts | 262° |
| 2026-05-05 11:05 | 43.22125 | 20.38954 | 37073 ft | 422 kts | 262° |
| 2026-05-05 11:05 | 43.20985 | 20.31061 | 37074 ft | 421 kts | 262° |
| 2026-05-05 11:06 | 43.19846 | 20.23187 | 37066 ft | 422 kts | 262° |
| 2026-05-05 11:06 | 43.18704 | 20.15315 | 37068 ft | 420 kts | 262° |
| 2026-05-05 11:07 | 43.17560 | 20.07470 | 37059 ft | 420 kts | 262° |
| 2026-05-05 11:07 | 43.16405 | 19.99631 | 37059 ft | 419 kts | 262° |
| 2026-05-05 11:08 | 43.15247 | 19.91815 | 37062 ft | 419 kts | 262° |
| 2026-05-05 11:08 | 43.14087 | 19.84008 | 37067 ft | 418 kts | 261° |
| 2026-05-05 11:09 | 43.12917 | 19.76216 | 37067 ft | 418 kts | 261° |
| 2026-05-05 11:09 | 43.11750 | 19.68441 | 37081 ft | 416 kts | 261° |
| 2026-05-05 11:10 | 43.10592 | 19.60692 | 37075 ft | 415 kts | 261° |
| 2026-05-05 11:10 | 43.09425 | 19.52964 | 37087 ft | 414 kts | 261° |
| 2026-05-05 11:11 | 43.08251 | 19.45260 | 37093 ft | 413 kts | 261° |
| 2026-05-05 11:11 | 43.07072 | 19.37576 | 37100 ft | 412 kts | 261° |
| 2026-05-05 11:12 | 43.05898 | 19.29919 | 37104 ft | 411 kts | 261° |
| 2026-05-05 11:12 | 43.04724 | 19.22287 | 37111 ft | 410 kts | 261° |
| 2026-05-05 11:13 | 43.03543 | 19.14668 | 37118 ft | 409 kts | 261° |
| 2026-05-05 11:13 | 43.02359 | 19.07070 | 37111 ft | 409 kts | 260° |
| 2026-05-05 11:14 | 43.01167 | 18.99476 | 37114 ft | 408 kts | 260° |
| 2026-05-05 11:14 | 42.99968 | 18.91897 | 37112 ft | 409 kts | 260° |
| 2026-05-05 11:15 | 42.98766 | 18.84314 | 37106 ft | 408 kts | 260° |
| 2026-05-05 11:15 | 42.97571 | 18.76752 | 37110 ft | 407 kts | 260° |
| 2026-05-05 11:16 | 42.96372 | 18.69203 | 37110 ft | 406 kts | 260° |
| 2026-05-05 11:16 | 42.95165 | 18.61673 | 37112 ft | 406 kts | 260° |
| 2026-05-05 11:17 | 42.93957 | 18.54141 | 37116 ft | 406 kts | 260° |
| 2026-05-05 11:17 | 42.92743 | 18.46626 | 37115 ft | 406 kts | 260° |
| 2026-05-05 11:18 | 42.91520 | 18.39106 | 37115 ft | 406 kts | 259° |
| 2026-05-05 11:18 | 42.90296 | 18.31608 | 37125 ft | 405 kts | 259° |
| 2026-05-05 11:19 | 42.89069 | 18.24107 | 37125 ft | 406 kts | 259° |
| 2026-05-05 11:19 | 42.87836 | 18.16602 | 37127 ft | 406 kts | 259° |
| 2026-05-05 11:20 | 42.86593 | 18.09108 | 37130 ft | 405 kts | 259° |
| 2026-05-05 11:20 | 42.85347 | 18.01617 | 37131 ft | 405 kts | 259° |
| 2026-05-05 11:21 | 42.84103 | 17.94128 | 37130 ft | 405 kts | 259° |
| 2026-05-05 11:21 | 42.82851 | 17.86639 | 37123 ft | 405 kts | 259° |
| 2026-05-05 11:22 | 42.81811 | 17.80433 | 37120 ft | 405 kts | 259° |
| 2026-05-05 11:22 | 42.80336 | 17.71695 | 37120 ft | 405 kts | 259° |
| 2026-05-05 11:23 | 42.79068 | 17.64216 | 37129 ft | 405 kts | 259° |
| 2026-05-05 11:23 | 42.77801 | 17.56742 | 37126 ft | 405 kts | 259° |
| 2026-05-05 11:24 | 42.76522 | 17.49286 | 37114 ft | 405 kts | 259° |
| 2026-05-05 11:24 | 42.75446 | 17.43034 | 37113 ft | 405 kts | 259° |
| 2026-05-05 11:25 | 42.74160 | 17.35577 | 37111 ft | 405 kts | 259° |
| 2026-05-05 11:25 | 42.72876 | 17.28130 | 37117 ft | 405 kts | 259° |
| 2026-05-05 11:26 | 42.71580 | 17.20682 | 37114 ft | 404 kts | 259° |
| 2026-05-05 11:26 | 42.70283 | 17.13246 | 37112 ft | 404 kts | 258° |
| 2026-05-05 11:27 | 42.68977 | 17.05823 | 37105 ft | 404 kts | 258° |
| 2026-05-05 11:27 | 42.67679 | 16.98408 | 37107 ft | 403 kts | 258° |
| 2026-05-05 11:28 | 42.66379 | 16.91002 | 37105 ft | 403 kts | 258° |
| 2026-05-05 11:28 | 42.65061 | 16.83605 | 37110 ft | 402 kts | 258° |
| 2026-05-05 11:29 | 42.63747 | 16.76225 | 37102 ft | 402 kts | 258° |
| 2026-05-05 11:29 | 42.62428 | 16.68841 | 37100 ft | 402 kts | 258° |
| 2026-05-05 11:30 | 42.61105 | 16.61471 | 37100 ft | 402 kts | 258° |
| 2026-05-05 11:30 | 42.59784 | 16.54108 | 37098 ft | 401 kts | 258° |
| 2026-05-05 11:31 | 42.58449 | 16.46752 | 37095 ft | 401 kts | 258° |
| 2026-05-05 11:31 | 42.57108 | 16.39406 | 37092 ft | 401 kts | 258° |
| 2026-05-05 11:32 | 42.55775 | 16.32076 | 37096 ft | 400 kts | 258° |
| 2026-05-05 11:32 | 42.54429 | 16.24708 | 37091 ft | 400 kts | 258° |
| 2026-05-05 11:33 | 42.53089 | 16.17405 | 37092 ft | 399 kts | 258° |
| 2026-05-05 11:33 | 42.51743 | 16.10109 | 37082 ft | 399 kts | 258° |
| 2026-05-05 11:34 | 42.50707 | 16.02771 | 37080 ft | 395 kts | 269° |
| 2026-05-05 11:34 | 42.50487 | 15.95328 | 37075 ft | 395 kts | 269° |
| 2026-05-05 11:35 | 42.50253 | 15.87900 | 37075 ft | 395 kts | 269° |
| 2026-05-05 11:35 | 42.50010 | 15.80428 | 37077 ft | 394 kts | 269° |
| 2026-05-05 11:36 | 42.49772 | 15.73012 | 37074 ft | 394 kts | 268° |
| 2026-05-05 11:36 | 42.49521 | 15.65602 | 37073 ft | 394 kts | 268° |
| 2026-05-05 11:37 | 42.49254 | 15.58191 | 37069 ft | 394 kts | 268° |
| 2026-05-05 11:37 | 42.48985 | 15.50779 | 37064 ft | 394 kts | 268° |
| 2026-05-05 11:38 | 42.48716 | 15.43366 | 37064 ft | 394 kts | 268° |
| 2026-05-05 11:38 | 42.48432 | 15.35904 | 37063 ft | 394 kts | 268° |
| 2026-05-05 11:39 | 42.48149 | 15.28486 | 37061 ft | 394 kts | 268° |
| 2026-05-05 11:39 | 42.47864 | 15.21121 | 37061 ft | 394 kts | 268° |
| 2026-05-05 11:40 | 42.47579 | 15.13654 | 37060 ft | 394 kts | 268° |
| 2026-05-05 11:40 | 42.47300 | 15.06231 | 37062 ft | 395 kts | 268° |
| 2026-05-05 11:41 | 42.47022 | 14.98809 | 37059 ft | 395 kts | 268° |
| 2026-05-05 11:41 | 42.46732 | 14.91377 | 37053 ft | 396 kts | 268° |
| 2026-05-05 11:42 | 42.46433 | 14.83917 | 37048 ft | 397 kts | 268° |
| 2026-05-05 11:42 | 42.46132 | 14.76452 | 37046 ft | 397 kts | 268° |
| 2026-05-05 11:43 | 42.45827 | 14.68939 | 37046 ft | 397 kts | 268° |
| 2026-05-05 11:43 | 42.45519 | 14.61478 | 37051 ft | 397 kts | 268° |
| 2026-05-05 11:44 | 42.45200 | 14.54013 | 37049 ft | 397 kts | 268° |
| 2026-05-05 11:44 | 42.44868 | 14.46539 | 37050 ft | 398 kts | 267° |
| 2026-05-05 11:45 | 42.44533 | 14.39063 | 37049 ft | 398 kts | 268° |
| 2026-05-05 11:45 | 42.43477 | 14.31717 | 37045 ft | 402 kts | 251° |
| 2026-05-05 11:46 | 42.40825 | 14.25010 | 37047 ft | 405 kts | 243° |
| 2026-05-05 11:46 | 42.38001 | 14.18375 | 37053 ft | 404 kts | 243° |
| 2026-05-05 11:46 | 42.36606 | 14.15084 | 36608 ft | 405 kts | 243° |
| 2026-05-05 11:47 | 42.35185 | 14.11738 | 35480 ft | 412 kts | 243° |
| 2026-05-05 11:47 | 42.33762 | 14.08394 | 34189 ft | 410 kts | 243° |
| 2026-05-05 11:47 | 42.32355 | 14.05095 | 32565 ft | 411 kts | 243° |
| 2026-05-05 11:47 | 42.30917 | 14.01733 | 30939 ft | 415 kts | 243° |
| 2026-05-05 11:48 | 42.28122 | 13.95218 | 29246 ft | 388 kts | 243° |
| 2026-05-05 11:48 | 42.26759 | 13.92049 | 28251 ft | 391 kts | 242° |
| 2026-05-05 11:48 | 42.25402 | 13.88890 | 27672 ft | 389 kts | 243° |
| 2026-05-05 11:49 | 42.24052 | 13.85744 | 27079 ft | 386 kts | 242° |
| 2026-05-05 11:49 | 42.22705 | 13.82615 | 26453 ft | 384 kts | 242° |
| 2026-05-05 11:49 | 42.21362 | 13.79504 | 25838 ft | 383 kts | 242° |
| 2026-05-05 11:49 | 42.20028 | 13.76410 | 25233 ft | 380 kts | 242° |
| 2026-05-05 11:50 | 42.18784 | 13.73286 | 24604 ft | 377 kts | 248° |
| 2026-05-05 11:50 | 42.17838 | 13.70001 | 23883 ft | 378 kts | 251° |
| 2026-05-05 11:50 | 42.16911 | 13.66657 | 23019 ft | 382 kts | 251° |
| 2026-05-05 11:50 | 42.15975 | 13.63332 | 22451 ft | 378 kts | 250° |
| 2026-05-05 11:51 | 42.15040 | 13.60042 | 21925 ft | 374 kts | 250° |
| 2026-05-05 11:51 | 42.14114 | 13.56786 | 21385 ft | 371 kts | 250° |
| 2026-05-05 11:51 | 42.13196 | 13.53553 | 20886 ft | 368 kts | 250° |
| 2026-05-05 11:51 | 42.12284 | 13.50346 | 20376 ft | 365 kts | 250° |
| 2026-05-05 11:52 | 42.11378 | 13.47169 | 19915 ft | 362 kts | 250° |
| 2026-05-05 11:52 | 42.10478 | 13.44019 | 19445 ft | 359 kts | 250° |
| 2026-05-05 11:52 | 42.09590 | 13.40913 | 19228 ft | 350 kts | 250° |
| 2026-05-05 11:52 | 42.08734 | 13.37914 | 19111 ft | 337 kts | 250° |
| 2026-05-05 11:53 | 42.07911 | 13.35027 | 19001 ft | 324 kts | 250° |
| 2026-05-05 11:53 | 42.07120 | 13.32247 | 18877 ft | 312 kts | 250° |
| 2026-05-05 11:53 | 42.06354 | 13.29562 | 18676 ft | 303 kts | 250° |
| 2026-05-05 11:53 | 42.05455 | 13.27005 | 18479 ft | 304 kts | 241° |
| 2026-05-05 11:54 | 42.04375 | 13.24535 | 17917 ft | 306 kts | 241° |
| 2026-05-05 11:54 | 42.03288 | 13.22097 | 17537 ft | 302 kts | 240° |
| 2026-05-05 11:54 | 42.02206 | 13.19687 | 17106 ft | 301 kts | 240° |
| 2026-05-05 11:54 | 42.01133 | 13.17294 | 16801 ft | 294 kts | 240° |
| 2026-05-05 11:55 | 42.00097 | 13.14976 | 16681 ft | 284 kts | 240° |
| 2026-05-05 11:55 | 41.99162 | 13.12688 | 16518 ft | 275 kts | 247° |
| 2026-05-05 11:55 | 41.98375 | 13.10367 | 16224 ft | 272 kts | 246° |
| 2026-05-05 11:55 | 41.97587 | 13.08067 | 15895 ft | 270 kts | 246° |
| 2026-05-05 11:56 | 41.96798 | 13.05779 | 15656 ft | 268 kts | 246° |
| 2026-05-05 11:56 | 41.96022 | 13.03533 | 15476 ft | 263 kts | 246° |
| 2026-05-05 11:56 | 41.95252 | 13.01302 | 15330 ft | 263 kts | 246° |
| 2026-05-05 11:56 | 41.94733 | 12.99796 | 15229 ft | 262 kts | 246° |
| 2026-05-05 11:57 | 41.93976 | 12.97604 | 15093 ft | 262 kts | 246° |
| 2026-05-05 11:57 | 41.93208 | 12.95388 | 14946 ft | 262 kts | 246° |
| 2026-05-05 11:57 | 41.92439 | 12.93168 | 14802 ft | 262 kts | 246° |
| 2026-05-05 11:57 | 41.91672 | 12.90952 | 14660 ft | 261 kts | 246° |
| 2026-05-05 11:58 | 41.90905 | 12.88746 | 14516 ft | 261 kts | 246° |
| 2026-05-05 11:58 | 41.90137 | 12.86546 | 14380 ft | 260 kts | 245° |
| 2026-05-05 11:58 | 41.89367 | 12.84345 | 14234 ft | 260 kts | 245° |
| 2026-05-05 11:58 | 41.88599 | 12.82149 | 14097 ft | 260 kts | 245° |
| 2026-05-05 11:59 | 41.87835 | 12.79956 | 13947 ft | 259 kts | 246° |
| 2026-05-05 11:59 | 41.87075 | 12.77767 | 13790 ft | 259 kts | 246° |
| 2026-05-05 11:59 | 41.86375 | 12.75748 | 13661 ft | 259 kts | 246° |
| 2026-05-05 11:59 | 41.85615 | 12.73560 | 13457 ft | 258 kts | 245° |
| 2026-05-05 12:00 | 41.84858 | 12.71378 | 13311 ft | 258 kts | 245° |
| 2026-05-05 12:00 | 41.84100 | 12.69203 | 13167 ft | 257 kts | 245° |
| 2026-05-05 12:00 | 41.83341 | 12.67034 | 13028 ft | 257 kts | 245° |
| 2026-05-05 12:00 | 41.82581 | 12.64865 | 12880 ft | 256 kts | 245° |
| 2026-05-05 12:01 | 41.81841 | 12.62728 | 12730 ft | 256 kts | 248° |
| 2026-05-05 12:01 | 41.81468 | 12.60606 | 12602 ft | 256 kts | 266° |
| 2026-05-05 12:01 | 41.81681 | 12.58238 | 12460 ft | 259 kts | 286° |
| 2026-05-05 12:01 | 41.82519 | 12.56096 | 12313 ft | 264 kts | 306° |
| 2026-05-05 12:02 | 41.83799 | 12.54312 | 12166 ft | 266 kts | 311° |
| 2026-05-05 12:02 | 41.85106 | 12.52561 | 12006 ft | 265 kts | 311° |
| 2026-05-05 12:02 | 41.86404 | 12.50812 | 11856 ft | 264 kts | 310° |
| 2026-05-05 12:02 | 41.87713 | 12.49046 | 11694 ft | 264 kts | 310° |
| 2026-05-05 12:03 | 41.89013 | 12.47345 | 11563 ft | 265 kts | 316° |
| 2026-05-05 12:03 | 41.90562 | 12.45986 | 11406 ft | 269 kts | 330° |
| 2026-05-05 12:03 | 41.92331 | 12.45130 | 11265 ft | 272 kts | 339° |
| 2026-05-05 12:03 | 41.94137 | 12.44393 | 11121 ft | 271 kts | 338° |
| 2026-05-05 12:04 | 41.95938 | 12.43650 | 10960 ft | 271 kts | 338° |
| 2026-05-05 12:04 | 41.97739 | 12.42902 | 10816 ft | 270 kts | 338° |
| 2026-05-05 12:04 | 41.99534 | 12.42155 | 10661 ft | 270 kts | 338° |
| 2026-05-05 12:04 | 42.01324 | 12.41407 | 10518 ft | 269 kts | 338° |
| 2026-05-05 12:05 | 42.03133 | 12.40655 | 10363 ft | 268 kts | 338° |
| 2026-05-05 12:05 | 42.04887 | 12.39928 | 10221 ft | 268 kts | 338° |
| 2026-05-05 12:05 | 42.06666 | 12.39190 | 10070 ft | 267 kts | 338° |
| 2026-05-05 12:05 | 42.08437 | 12.38452 | 9914 ft | 267 kts | 338° |
| 2026-05-05 12:06 | 42.10211 | 12.37709 | 9763 ft | 266 kts | 338° |
| 2026-05-05 12:06 | 42.11904 | 12.37002 | 9547 ft | 259 kts | 338° |
| 2026-05-05 12:06 | 42.13603 | 12.36292 | 9420 ft | 252 kts | 338° |
| 2026-05-05 12:06 | 42.15284 | 12.35585 | 9322 ft | 254 kts | 338° |
| 2026-05-05 12:07 | 42.16968 | 12.34874 | 9199 ft | 253 kts | 338° |
| 2026-05-05 12:07 | 42.18648 | 12.34163 | 9061 ft | 253 kts | 338° |
| 2026-05-05 12:07 | 42.20327 | 12.33454 | 8968 ft | 253 kts | 338° |
| 2026-05-05 12:07 | 42.22005 | 12.32745 | 8867 ft | 252 kts | 338° |
| 2026-05-05 12:08 | 42.23678 | 12.32041 | 8771 ft | 252 kts | 338° |
| 2026-05-05 12:08 | 42.25348 | 12.31339 | 8671 ft | 252 kts | 338° |
| 2026-05-05 12:08 | 42.27021 | 12.30632 | 8568 ft | 252 kts | 338° |
| 2026-05-05 12:08 | 42.28689 | 12.29929 | 8477 ft | 251 kts | 338° |
| 2026-05-05 12:09 | 42.30358 | 12.29226 | 8382 ft | 251 kts | 338° |
| 2026-05-05 12:09 | 42.32017 | 12.28530 | 8286 ft | 249 kts | 338° |
| 2026-05-05 12:09 | 42.33674 | 12.27834 | 8185 ft | 250 kts | 337° |
| 2026-05-05 12:09 | 42.35333 | 12.27134 | 8087 ft | 250 kts | 337° |
| 2026-05-05 12:10 | 42.36996 | 12.26433 | 7977 ft | 250 kts | 338° |
| 2026-05-05 12:10 | 42.38657 | 12.25736 | 7869 ft | 250 kts | 338° |
| 2026-05-05 12:10 | 42.40228 | 12.24810 | 7768 ft | 243 kts | 317° |
| 2026-05-05 12:10 | 42.41256 | 12.23088 | 7667 ft | 233 kts | 288° |
| 2026-05-05 12:11 | 42.41533 | 12.20984 | 7563 ft | 225 kts | 262° |
| 2026-05-05 12:11 | 42.41149 | 12.18948 | 7468 ft | 225 kts | 251° |
| 2026-05-05 12:11 | 42.40670 | 12.16937 | 7369 ft | 225 kts | 251° |
| 2026-05-05 12:11 | 42.40195 | 12.14918 | 7275 ft | 225 kts | 251° |
| 2026-05-05 12:12 | 42.39728 | 12.12915 | 7169 ft | 223 kts | 252° |
| 2026-05-05 12:12 | 42.39077 | 12.11036 | 7078 ft | 220 kts | 228° |
| 2026-05-05 12:12 | 42.37810 | 12.10003 | 6984 ft | 215 kts | 194° |
| 2026-05-05 12:12 | 42.36281 | 12.10200 | 6891 ft | 231 kts | 162° |
| 2026-05-05 12:13 | 42.34783 | 12.11000 | 6793 ft | 231 kts | 166° |
| 2026-05-05 12:13 | 42.33260 | 12.11659 | 6704 ft | 230 kts | 169° |
| 2026-05-05 12:13 | 42.31745 | 12.12263 | 6607 ft | 230 kts | 168° |
| 2026-05-05 12:13 | 42.30203 | 12.12876 | 6506 ft | 227 kts | 168° |
| 2026-05-05 12:14 | 42.28712 | 12.13475 | 6417 ft | 226 kts | 168° |
| 2026-05-05 12:14 | 42.27201 | 12.14091 | 6326 ft | 228 kts | 167° |
| 2026-05-05 12:14 | 42.25687 | 12.14716 | 6236 ft | 227 kts | 167° |
| 2026-05-05 12:14 | 42.24176 | 12.15347 | 6142 ft | 227 kts | 167° |
| 2026-05-05 12:15 | 42.22678 | 12.15974 | 6056 ft | 224 kts | 167° |
| 2026-05-05 12:15 | 42.21184 | 12.16602 | 5774 ft | 223 kts | 167° |
| 2026-05-05 12:15 | 42.19705 | 12.17227 | 5561 ft | 222 kts | 167° |
| 2026-05-05 12:15 | 42.18231 | 12.17850 | 5354 ft | 222 kts | 167° |
| 2026-05-05 12:16 | 42.16774 | 12.18467 | 5160 ft | 218 kts | 167° |
| 2026-05-05 12:16 | 42.15333 | 12.19062 | 4966 ft | 213 kts | 171° |
| 2026-05-05 12:16 | 42.13902 | 12.19217 | 4774 ft | 202 kts | 184° |
| 2026-05-05 12:16 | 42.12520 | 12.19192 | 4593 ft | 195 kts | 184° |
| 2026-05-05 12:17 | 42.11183 | 12.19171 | 4419 ft | 189 kts | 184° |
| 2026-05-05 12:17 | 42.09883 | 12.19149 | 4251 ft | 185 kts | 183° |
| 2026-05-05 12:17 | 42.08603 | 12.19129 | 4085 ft | 183 kts | 183° |
| 2026-05-05 12:17 | 42.07331 | 12.19109 | 3917 ft | 183 kts | 183° |
| 2026-05-05 12:18 | 42.06057 | 12.19087 | 3758 ft | 184 kts | 183° |
| 2026-05-05 12:18 | 42.04775 | 12.19067 | 3587 ft | 183 kts | 182° |
| 2026-05-05 12:18 | 42.03518 | 12.19048 | 3427 ft | 181 kts | 182° |
| 2026-05-05 12:18 | 42.02260 | 12.19030 | 3262 ft | 181 kts | 183° |
| 2026-05-05 12:19 | 42.01010 | 12.19240 | 3095 ft | 182 kts | 165° |
| 2026-05-05 12:19 | 41.99811 | 12.19756 | 2940 ft | 179 kts | 165° |
| 2026-05-05 12:19 | 41.98679 | 12.20237 | 2861 ft | 163 kts | 166° |
| 2026-05-05 12:19 | 41.97652 | 12.20670 | 2700 ft | 147 kts | 167° |
| 2026-05-05 12:20 | 41.96718 | 12.21063 | 2529 ft | 137 kts | 167° |
| 2026-05-05 12:20 | 41.95815 | 12.21441 | 2362 ft | 135 kts | 166° |
| 2026-05-05 12:20 | 41.94919 | 12.21816 | 2178 ft | 135 kts | 166° |
| 2026-05-05 12:20 | 41.94021 | 12.22194 | 2008 ft | 135 kts | 165° |
| 2026-05-05 12:21 | 41.93131 | 12.22567 | 1818 ft | 133 kts | 164° |
| 2026-05-05 12:21 | 41.92241 | 12.22941 | 1645 ft | 133 kts | 163° |
| 2026-05-05 12:21 | 41.91357 | 12.23312 | 1456 ft | 133 kts | 163° |
| 2026-05-05 12:21 | 41.90473 | 12.23684 | 1284 ft | 133 kts | 164° |
| 2026-05-05 12:22 | 41.89589 | 12.24054 | 1101 ft | 134 kts | 163° |
| 2026-05-05 12:22 | 41.88706 | 12.24425 | 917 ft | 133 kts | 163° |
| 2026-05-05 12:22 | 41.87871 | 12.24775 | 745 ft | 135 kts | 161° |
| 2026-05-05 12:22 | 41.86982 | 12.25149 | 583 ft | 133 kts | 160° |
| 2026-05-05 12:23 | 41.86094 | 12.25526 | 406 ft | 133 kts | 161° |
| 2026-05-05 12:23 | 41.85214 | 12.25892 | 173 ft | 131 kts | 161° |
| 2026-05-05 12:23 | 41.84338 | 12.26261 | 49 ft | 132 kts | 161° |
| 2026-05-05 12:23 | 41.83494 | 12.26606 | 19 ft | 116 kts | 161° |
| 2026-05-05 12:24 | 41.82940 | 12.26843 | 12 ft | 44 kts | 165° |
| 2026-05-05 12:24 | 41.82671 | 12.26855 | 11 ft | 33 kts | 191° |
| 2026-05-05 12:24 | 41.82493 | 12.26805 | 11 ft | 24 kts | 191° |
| 2026-05-05 12:24 | 41.82342 | 12.26784 | 11 ft | 21 kts | 174° |
| 2026-05-05 12:25 | 41.82207 | 12.26827 | 12 ft | 19 kts | 162° |
| 2026-05-05 12:25 | 41.82084 | 12.26882 | 11 ft | 19 kts | 164° |
| 2026-05-05 12:25 | 41.81959 | 12.26931 | 12 ft | 18 kts | 162° |
| 2026-05-05 12:25 | 41.81842 | 12.26978 | 12 ft | 18 kts | 162° |
| 2026-05-05 12:26 | 41.81728 | 12.27026 | 12 ft | 17 kts | 164° |
| 2026-05-05 12:26 | 41.81611 | 12.27074 | 14 ft | 18 kts | 162° |
| 2026-05-05 12:26 | 41.81494 | 12.27126 | 12 ft | 18 kts | 162° |
| 2026-05-05 12:26 | 41.81375 | 12.27176 | 12 ft | 18 kts | 163° |
| 2026-05-05 12:27 | 41.81255 | 12.27224 | 12 ft | 18 kts | 163° |
| 2026-05-05 12:27 | 41.81136 | 12.27275 | 12 ft | 13 kts | 161° |
| 2026-05-05 12:27 | 41.81120 | 12.27283 | 12 ft | 1 kts | 161° |
| 2026-05-05 12:27 | 41.81101 | 12.27289 | 14 ft | 7 kts | 174° |
| 2026-05-05 12:28 | 41.81048 | 12.27248 | 12 ft | 10 kts | 229° |
| 2026-05-05 12:28 | 41.80989 | 12.27209 | 12 ft | 11 kts | 182° |
| 2026-05-05 12:28 | 41.80910 | 12.27224 | 12 ft | 12 kts | 178° |
| 2026-05-05 12:28 | 41.80822 | 12.27197 | 12 ft | 14 kts | 205° |
| 2026-05-05 12:29 | 41.80763 | 12.27097 | 14 ft | 13 kts | 241° |
| 2026-05-05 12:29 | 41.80686 | 12.27051 | 13 ft | 13 kts | 186° |
| 2026-05-05 12:29 | 41.80587 | 12.27038 | 13 ft | 15 kts | 185° |
| 2026-05-05 12:29 | 41.80515 | 12.27033 | 14 ft | 10 kts | 173° |
| 2026-05-05 12:30 | 41.80447 | 12.27062 | 14 ft | 11 kts | 160° |
| 2026-05-05 12:30 | 41.80418 | 12.27077 | 14 ft | 0 kts | 160° |